Time;durP1;ratioP1;P1;durP2;ratioP2;P2;SDS_P1;SDS_P2;PMS_P1;PMS_P2;Temp;Humidity;BMP_temperature;BMP_pressure;BME280_temperature;BME280_humidity;BME280_pressure;Samples;Min_cycle;Max_cycle;Signal;HPM_P1;HPM_P2
2023/02/08 00:01:15;;;;;;;105.70;34.20;;;;;;;-0.25;100.00;103882.94;5016554;28;20081;-42
2023/02/08 00:03:41;;;;;;;112.38;34.63;;;;;;;-0.23;100.00;103883.78;5016894;28;20033;-43
2023/02/08 00:06:07;;;;;;;99.45;34.58;;;;;;;-0.30;100.00;103878.66;5030943;28;20384;-42
2023/02/08 00:08:33;;;;;;;109.78;34.17;;;;;;;-0.34;100.00;103883.16;5032011;28;20033;-44
2023/02/08 00:10:59;;;;;;;100.93;35.45;;;;;;;-0.37;100.00;103869.13;5030484;28;20445;-44
2023/02/08 00:13:24;;;;;;;113.50;34.97;;;;;;;-0.37;100.00;103872.66;5028827;28;20271;-43
2023/02/08 00:15:51;;;;;;;104.85;33.97;;;;;;;-0.41;100.00;103868.34;5012405;28;20030;-44
2023/02/08 00:18:16;;;;;;;108.53;33.17;;;;;;;-0.49;100.00;103860.56;5025527;28;20408;-42
2023/02/08 00:20:42;;;;;;;105.22;33.33;;;;;;;-0.57;100.00;103851.09;5021085;28;20077;-43
2023/02/08 00:23:07;;;;;;;100.47;32.53;;;;;;;-0.64;100.00;103841.53;5012341;28;20022;-43
2023/02/08 00:25:33;;;;;;;102.07;31.70;;;;;;;-0.65;100.00;103840.69;5031084;28;20469;-42
2023/02/08 00:27:58;;;;;;;108.88;31.50;;;;;;;-0.66;100.00;103838.91;5030572;28;20026;-43
2023/02/08 00:30:24;;;;;;;110.72;33.47;;;;;;;-0.74;100.00;103830.28;5030731;28;20033;-43
2023/02/08 00:32:49;;;;;;;103.03;33.35;;;;;;;-0.74;100.00;103847.06;5032049;28;20461;-43
2023/02/08 00:35:15;;;;;;;103.10;33.08;;;;;;;-0.76;100.00;103845.34;5015886;28;20069;-42
2023/02/08 00:37:40;;;;;;;104.38;33.58;;;;;;;-0.76;100.00;103843.56;5031318;28;20125;-43
2023/02/08 00:40:06;;;;;;;104.32;31.70;;;;;;;-0.75;100.00;103849.72;5024752;28;20026;-45
2023/02/08 00:42:31;;;;;;;96.57;31.85;;;;;;;-0.71;100.00;103839.03;5030983;28;20495;-43
2023/02/08 00:44:57;;;;;;;96.65;32.33;;;;;;;-0.73;100.00;103843.50;5017954;28;20033;-43
2023/02/08 00:47:23;;;;;;;98.15;31.40;;;;;;;-0.71;100.00;103838.16;5012186;28;20022;-43
2023/02/08 00:49:49;;;;;;;107.97;34.20;;;;;;;-0.72;100.00;103845.22;5031379;28;20136;-41
2023/02/08 00:52:14;;;;;;;109.53;34.65;;;;;;;-0.69;100.00;103845.16;5030408;28;20125;-42
2023/02/08 00:54:40;;;;;;;107.28;33.08;;;;;;;-0.64;100.00;103852.13;5031031;28;20091;-43
2023/02/08 00:57:06;;;;;;;108.38;33.65;;;;;;;-0.67;100.00;103847.78;5031220;28;20079;-44
2023/02/08 00:59:31;;;;;;;101.75;32.22;;;;;;;-0.66;100.00;103860.06;5029443;28;20029;-43
2023/02/08 01:01:56;;;;;;;102.40;32.42;;;;;;;-0.66;100.00;103860.06;5031455;28;20033;-44
2023/02/08 01:04:22;;;;;;;95.85;32.83;;;;;;;-0.67;100.00;103861.00;5026715;28;20128;-44
2023/02/08 01:06:47;;;;;;;97.25;31.77;;;;;;;-0.69;100.00;103863.66;5031826;28;20100;-41
2023/02/08 01:09:12;;;;;;;97.47;31.08;;;;;;;-0.80;100.00;103863.03;5018100;28;20054;-43
2023/02/08 01:11:38;;;;;;;93.13;32.35;;;;;;;-0.85;100.00;103861.41;5029259;28;20094;-43
2023/02/08 01:14:03;;;;;;;90.57;29.88;;;;;;;-0.82;100.00;103864.84;5031887;28;20020;-43
2023/02/08 01:16:30;;;;;;;110.13;33.65;;;;;;;-0.80;100.00;103860.41;5011961;28;20061;-43
2023/02/08 01:18:57;;;;;;;104.15;32.40;;;;;;;-0.79;100.00;103858.63;5012147;28;20030;-43
2023/02/08 01:21:28;;;;;;;111.45;32.47;;;;;;;-0.79;100.00;103854.22;5023325;28;20112;-44
2023/02/08 01:23:54;;;;;;;105.78;32.47;;;;;;;-0.81;100.00;103850.72;5031358;28;20393;-45
2023/02/08 01:26:21;;;;;;;99.68;32.45;;;;;;;-0.82;100.00;103854.25;5026902;28;20108;-43
2023/02/08 01:28:46;;;;;;;109.90;31.63;;;;;;;-0.80;100.00;103855.09;5031120;28;20041;-41
2023/02/08 01:31:17;;;;;;;98.65;29.88;;;;;;;-0.75;100.00;103849.72;5030041;28;20033;-43
2023/02/08 01:33:43;;;;;;;91.05;30.15;;;;;;;-0.73;100.00;103851.44;5030921;28;20099;-42
2023/02/08 01:36:09;;;;;;;103.35;30.33;;;;;;;-0.70;100.00;103843.41;5030151;28;20033;-42
2023/02/08 01:38:35;;;;;;;95.30;31.05;;;;;;;-0.71;100.00;103848.72;5024131;28;20068;-41
2023/02/08 01:41:02;;;;;;;98.18;29.55;;;;;;;-0.67;100.00;103843.34;5011245;28;20448;-42
2023/02/08 01:43:30;;;;;;;105.30;30.88;;;;;;;-0.68;100.00;103841.63;5011081;28;20076;-42
2023/02/08 01:45:56;;;;;;;92.03;29.42;;;;;;;-0.68;100.00;103856.63;5024288;28;20033;-43
2023/02/08 01:48:36;;;;;;;90.20;28.20;;;;;;;-0.74;100.00;103848.81;5031172;28;20147;-43
2023/02/08 01:51:17;;;;;;;82.85;29.40;;;;;;;-0.78;100.00;103840.09;5029658;28;20029;-42
2023/02/08 01:53:43;;;;;;;92.32;29.23;;;;;;;-0.78;100.00;103841.88;5030776;28;20117;-42
2023/02/08 01:56:12;;;;;;;101.05;29.67;;;;;;;-0.76;100.00;103827.69;5013831;28;20022;-44
2023/02/08 01:58:42;;;;;;;93.68;30.13;;;;;;;-0.71;100.00;103836.41;5026019;28;20065;-43
2023/02/08 02:01:07;;;;;;;101.50;30.70;;;;;;;-0.70;100.00;103838.13;5036293;28;20058;-44
2023/02/08 02:03:33;;;;;;;87.75;28.98;;;;;;;-0.70;100.00;103832.84;5029403;28;20068;-43
2023/02/08 02:06:14;;;;;;;93.28;30.25;;;;;;;-0.75;100.00;103826.78;5018964;28;20392;-44
2023/02/08 02:08:51;;;;;;;98.03;30.02;;;;;;;-0.79;100.00;103838.34;5030434;28;20477;-42
2023/02/08 02:11:17;;;;;;;88.07;27.90;;;;;;;-0.87;100.00;103834.97;5022479;28;20084;-43
2023/02/08 02:13:43;;;;;;;99.00;28.70;;;;;;;-0.93;100.00;103837.78;5014369;28;20045;-42
2023/02/08 02:16:08;;;;;;;88.30;28.88;;;;;;;-0.97;100.00;103836.13;5009490;28;20026;-43
2023/02/08 02:18:34;;;;;;;88.10;29.88;;;;;;;-0.97;100.00;103833.47;5014286;28;20459;-43
2023/02/08 02:21:22;;;;;;;92.93;28.25;;;;;;;-0.98;100.00;103824.66;5028598;28;20433;-42
2023/02/08 02:24:05;;;;;;;77.53;27.85;;;;;;;-0.99;100.00;103829.97;5018101;28;20087;-43
2023/02/08 02:26:54;;;;;;;87.88;27.73;;;;;;;-1.09;100.00;103820.50;5012852;28;20060;-42
2023/02/08 02:29:26;;;;;;;95.50;27.83;;;;;;;-1.15;100.00;103819.75;5010071;28;20030;-42
2023/02/08 02:32:02;;;;;;;89.90;29.45;;;;;;;-1.15;100.00;103817.09;5013355;28;20057;-42
2023/02/08 02:34:54;;;;;;;88.07;28.88;;;;;;;-1.09;100.00;103815.22;5017893;28;20477;-42
2023/02/08 02:37:36;;;;;;;76.38;26.83;;;;;;;-1.06;100.00;103818.66;5032455;28;20333;-42
2023/02/08 02:40:38;;;;;;;89.03;29.75;;;;;;;-1.02;100.00;103816.84;5028550;28;20171;-43
2023/02/08 02:46:22;;;;;;;88.43;27.55;;;;;;;-0.96;100.00;103824.63;5012585;28;20065;-43
2023/02/08 02:48:53;;;;;;;77.72;26.45;;;;;;;-0.99;100.00;103824.69;5022751;28;20310;-43
2023/02/08 02:51:37;;;;;;;75.88;27.05;;;;;;;-0.94;100.00;103817.53;5029417;28;20034;-42
2023/02/08 02:54:07;;;;;;;75.32;26.35;;;;;;;-1.02;100.00;103815.06;5029855;28;20117;-43
2023/02/08 02:56:36;;;;;;;81.78;28.67;;;;;;;-1.06;100.00;103816.00;5028992;28;20079;-43
2023/02/08 02:59:06;;;;;;;84.90;29.02;;;;;;;-1.04;100.00;103816.00;5019258;28;20455;-43
2023/02/08 03:01:32;;;;;;;77.85;26.98;;;;;;;-1.04;100.00;103818.63;5015826;28;20029;-43
2023/02/08 03:03:57;;;;;;;80.30;28.38;;;;;;;-1.07;100.00;103810.78;5030386;28;20392;-43
2023/02/08 03:06:35;;;;;;;86.97;29.88;;;;;;;-1.06;100.00;103813.38;5030170;28;20025;-44
2023/02/08 03:09:10;;;;;;;75.43;27.13;;;;;;;-1.11;100.00;103817.88;5030181;28;20038;-44
2023/02/08 03:11:36;;;;;;;76.07;26.17;;;;;;;-1.15;100.00;103810.94;5030031;28;20033;-43
2023/02/08 03:14:20;;;;;;;87.47;27.95;;;;;;;-1.15;100.00;103803.00;5015218;28;20026;-42
2023/02/08 03:17:12;;;;;;;75.95;27.55;;;;;;;-1.14;100.00;103799.47;5011227;28;20037;-41
2023/02/08 03:20:03;;;;;;;96.63;30.52;;;;;;;-1.17;100.00;103794.25;5012052;28;20108;-41
2023/02/08 03:22:42;;;;;;;79.82;27.67;;;;;;;-1.20;100.00;103797.81;5029903;28;20600;-42
2023/02/08 03:25:22;;;;;;;77.90;26.83;;;;;;;-1.21;100.00;103804.03;5034023;28;20033;-41
2023/02/08 03:27:53;;;;;;;82.60;26.40;;;;;;;-1.21;100.00;103795.19;5034567;28;20436;-42
2023/02/08 03:30:29;;;;;;;80.53;25.90;;;;;;;-1.17;100.00;103786.31;5029691;28;20030;-41
2023/02/08 03:33:33;;;;;;;82.28;25.25;;;;;;;-1.20;100.00;103783.75;5014451;28;20050;-42
2023/02/08 03:36:13;;;;;;;78.63;26.50;;;;;;;-1.20;100.00;103786.38;4995496;28;20053;-42
2023/02/08 03:38:41;;;;;;;60.35;24.90;;;;;;;-1.23;100.00;103787.31;5018872;28;20069;-42
2023/02/08 03:41:10;;;;;;;75.10;25.87;;;;;;;-1.23;100.00;103787.31;5006626;28;20024;-44
2023/02/08 03:43:46;;;;;;;66.50;25.17;;;;;;;-1.26;100.00;103779.47;5031526;28;20284;-42
2023/02/08 03:46:20;;;;;;;68.53;25.77;;;;;;;-1.26;100.00;103781.22;5033324;28;20233;-42
2023/02/08 03:48:50;;;;;;;79.43;27.20;;;;;;;-1.29;100.00;103779.53;5031707;28;20021;-42
2023/02/08 03:51:15;;;;;;;77.45;27.80;;;;;;;-1.30;100.00;103788.34;5017106;28;20026;-42
2023/02/08 03:53:43;;;;;;;77.38;27.13;;;;;;;-1.35;100.00;103785.78;5031699;28;20024;-43
2023/02/08 03:56:21;;;;;;;76.03;28.00;;;;;;;-1.35;100.00;103785.78;5032940;28;20508;-43
2023/02/08 03:58:55;;;;;;;72.53;25.80;;;;;;;-1.43;100.00;103779.81;5030983;28;20053;-41
2023/02/08 04:01:31;;;;;;;80.70;27.17;;;;;;;-1.42;100.00;103785.94;5000280;28;20021;-43
2023/02/08 04:03:57;;;;;;;68.00;25.60;;;;;;;-1.43;100.00;103793.00;5031055;28;20032;-42
2023/02/08 04:06:22;;;;;;;75.35;27.85;;;;;;;-1.42;100.00;103791.22;5031082;28;20504;-42
2023/02/08 04:08:48;;;;;;;79.07;28.27;;;;;;;-1.43;100.00;103786.88;5031336;28;20080;-42
2023/02/08 04:11:14;;;;;;;69.40;27.48;;;;;;;-1.46;100.00;103784.28;5028865;28;20044;-43
2023/02/08 04:13:39;;;;;;;74.22;26.67;;;;;;;-1.49;100.00;103787.88;5032773;28;20072;-42
2023/02/08 04:16:05;;;;;;;90.40;28.52;;;;;;;-1.49;100.00;103790.50;5032563;28;20492;-43
2023/02/08 04:18:30;;;;;;;77.43;26.38;;;;;;;-1.47;100.00;103782.56;5030782;28;20036;-42
2023/02/08 04:20:55;;;;;;;80.75;27.45;;;;;;;-1.44;100.00;103793.94;5018909;28;20102;-41
2023/02/08 04:23:21;;;;;;;76.05;26.27;;;;;;;-1.44;100.00;103785.13;5013879;28;20477;-41
2023/02/08 04:25:46;;;;;;;80.57;28.10;;;;;;;-1.47;100.00;103791.34;5022694;28;20496;-43
2023/02/08 04:28:11;;;;;;;77.95;27.67;;;;;;;-1.49;100.00;103787.00;5032684;28;20033;-42
2023/02/08 04:30:37;;;;;;;71.97;26.65;;;;;;;-1.50;100.00;103779.97;5032183;28;20125;-42
2023/02/08 04:33:02;;;;;;;73.22;27.10;;;;;;;-1.55;100.00;103773.00;5032080;28;20057;-42
2023/02/08 04:35:28;;;;;;;78.88;25.38;;;;;;;-1.58;100.00;103780.09;5032749;28;20053;-41
2023/02/08 04:37:53;;;;;;;77.85;26.33;;;;;;;-1.60;100.00;103779.28;5032092;28;20026;-43
2023/02/08 04:40:19;;;;;;;71.80;25.52;;;;;;;-1.62;100.00;103775.81;5031760;28;20087;-42
2023/02/08 04:42:44;;;;;;;76.45;27.90;;;;;;;-1.65;100.00;103763.53;5032622;28;20053;-42
2023/02/08 04:45:09;;;;;;;70.00;26.58;;;;;;;-1.72;100.00;103771.59;5019315;28;20022;-42
2023/02/08 04:47:35;;;;;;;67.53;25.48;;;;;;;-1.80;100.00;103758.56;5022439;28;20068;-41
2023/02/08 04:50:00;;;;;;;71.82;26.73;;;;;;;-1.83;100.00;103755.97;5033191;28;20033;-42
2023/02/08 04:52:25;;;;;;;66.13;24.92;;;;;;;-1.84;100.00;103759.53;5031567;28;20036;-42
2023/02/08 04:54:51;;;;;;;70.45;26.70;;;;;;;-1.83;100.00;103755.97;5031484;28;20091;-42
2023/02/08 04:57:16;;;;;;;74.05;26.67;;;;;;;-1.83;100.00;103756.84;5025296;28;20036;-43
2023/02/08 04:59:41;;;;;;;77.20;27.08;;;;;;;-1.85;100.00;103757.78;5024315;28;20033;-42
2023/02/08 05:02:07;;;;;;;78.30;27.48;;;;;;;-1.82;100.00;103758.59;5012328;28;20029;-42
2023/02/08 05:04:32;;;;;;;73.20;28.40;;;;;;;-1.83;100.00;103750.69;5009749;28;20037;-43
2023/02/08 05:06:58;;;;;;;76.85;27.00;;;;;;;-1.83;100.00;103755.97;5013954;28;20070;-42
2023/02/08 05:09:23;;;;;;;76.90;28.02;;;;;;;-1.83;100.00;103751.56;5029669;28;20079;-44
2023/02/08 05:11:48;;;;;;;72.03;27.80;;;;;;;-1.82;100.00;103755.97;5028159;28;20031;-45
2023/02/08 05:14:14;;;;;;;80.97;27.73;;;;;;;-1.78;100.00;103759.41;5031405;28;20036;-41
2023/02/08 05:16:39;;;;;;;71.82;27.00;;;;;;;-1.77;100.00;103742.66;5031306;28;20025;-42
2023/02/08 05:19:04;;;;;;;75.00;27.75;;;;;;;-1.75;100.00;103756.69;5028727;28;20041;-42
2023/02/08 05:21:30;;;;;;;76.75;27.48;;;;;;;-1.70;100.00;103762.75;5024722;28;20112;-41
2023/02/08 05:23:55;;;;;;;72.72;28.45;;;;;;;-1.74;100.00;103768.97;5010675;28;20045;-46
2023/02/08 05:26:21;;;;;;;74.00;28.73;;;;;;;-1.72;100.00;103763.69;5009864;28;20025;-42
2023/02/08 05:28:46;;;;;;;69.55;25.60;;;;;;;-1.77;100.00;103766.41;5020203;28;20033;-41
2023/02/08 05:31:19;;;;;;;68.75;26.45;;;;;;;-1.78;100.00;103762.91;5012410;28;20105;-43
2023/02/08 05:33:44;;;;;;;70.88;25.65;;;;;;;-1.78;100.00;103762.03;5026329;28;20585;-43
2023/02/08 05:36:09;;;;;;;75.15;26.40;;;;;;;-1.78;100.00;103762.03;5021551;28;20041;-43
2023/02/08 05:38:35;;;;;;;78.20;26.92;;;;;;;-1.82;100.00;103763.88;5013461;28;20034;-41
2023/02/08 05:41:00;;;;;;;69.43;27.25;;;;;;;-1.85;100.00;103763.06;5019191;28;20078;-42
2023/02/08 05:43:25;;;;;;;66.88;25.67;;;;;;;-1.83;100.00;103750.69;5012753;28;20057;-43
2023/02/08 05:45:51;;;;;;;78.95;27.02;;;;;;;-1.84;100.00;103738.41;5019401;28;20056;-42
2023/02/08 05:48:17;;;;;;;73.25;26.65;;;;;;;-1.88;100.00;103742.00;5028105;28;20033;-43
2023/02/08 05:50:42;;;;;;;69.82;24.75;;;;;;;-1.90;100.00;103739.38;5021637;28;20077;-42
2023/02/08 05:53:08;;;;;;;69.10;25.75;;;;;;;-1.92;100.00;103737.66;5021893;28;20038;-43
2023/02/08 05:55:33;;;;;;;68.63;26.67;;;;;;;-1.94;100.00;103737.72;5022450;28;20030;-43
2023/02/08 05:57:59;;;;;;;81.47;27.00;;;;;;;-1.96;100.00;103733.34;5013769;28;20072;-42
2023/02/08 06:00:24;;;;;;;70.47;27.17;;;;;;;-1.94;100.00;103726.28;5023368;28;20093;-42
2023/02/08 06:02:49;;;;;;;72.63;24.67;;;;;;;-1.92;100.00;103741.19;5021353;28;20045;-43
2023/02/08 06:05:15;;;;;;;63.35;24.52;;;;;;;-1.91;100.00;103742.06;5017752;28;20536;-41
2023/02/08 06:07:40;;;;;;;74.80;25.00;;;;;;;-1.88;100.00;103747.28;5022635;28;20112;-44
2023/02/08 06:10:06;;;;;;;66.25;24.73;;;;;;;-1.89;100.00;103748.19;5022164;28;20113;-42
2023/02/08 06:12:31;;;;;;;69.32;25.75;;;;;;;-1.90;100.00;103749.06;5017078;28;20057;-42
2023/02/08 06:14:56;;;;;;;60.97;23.73;;;;;;;-1.91;100.00;103757.91;5033191;28;20432;-42
2023/02/08 06:17:22;;;;;;;68.15;26.00;;;;;;;-1.93;100.00;103743.84;5021989;28;20025;-42
2023/02/08 06:19:47;;;;;;;71.95;24.67;;;;;;;-1.92;100.00;103742.94;5020408;28;20045;-41
2023/02/08 06:22:12;;;;;;;66.78;24.90;;;;;;;-1.92;100.00;103748.22;5012749;28;20034;-42
2023/02/08 06:24:38;;;;;;;68.90;25.77;;;;;;;-1.93;100.00;103746.50;5024415;28;20042;-42
2023/02/08 06:27:03;;;;;;;67.75;25.75;;;;;;;-1.90;100.00;103749.06;5027323;28;20025;-41
2023/02/08 06:29:28;;;;;;;63.78;24.98;;;;;;;-1.89;100.00;103750.81;5011340;28;20124;-42
2023/02/08 06:31:54;;;;;;;65.82;23.88;;;;;;;-1.89;100.00;103756.97;5011234;28;20042;-44
2023/02/08 06:34:19;;;;;;;59.63;21.67;;;;;;;-1.86;100.00;103761.31;5011454;28;20045;-43
2023/02/08 06:36:44;;;;;;;62.75;24.02;;;;;;;-1.82;100.00;103748.03;5017391;28;20461;-43
2023/02/08 06:39:10;;;;;;;66.00;24.60;;;;;;;-1.80;100.00;103743.56;5028497;28;20033;-42
2023/02/08 06:41:35;;;;;;;66.32;24.95;;;;;;;-1.84;100.00;103739.28;5010953;28;20061;-43
2023/02/08 06:44:01;;;;;;;71.32;26.02;;;;;;;-1.94;100.00;103726.28;5016476;28;20041;-44
2023/02/08 06:46:26;;;;;;;69.88;25.75;;;;;;;-1.98;100.00;103730.72;4997734;28;20041;-42
2023/02/08 06:48:52;;;;;;;70.97;25.95;;;;;;;-1.98;100.00;103734.25;4995583;28;20055;-44
2023/02/08 06:51:17;;;;;;;76.97;24.55;;;;;;;-1.98;100.00;103736.88;5018987;28;22011;-42
2023/02/08 06:53:42;;;;;;;73.97;24.92;;;;;;;-1.96;100.00;103738.63;5022131;28;20461;-43
2023/02/08 06:56:08;;;;;;;65.70;24.33;;;;;;;-2.05;100.00;103735.28;5024200;28;20341;-45
2023/02/08 06:58:33;;;;;;;67.38;23.63;;;;;;;-2.03;100.00;103737.88;5025004;28;20496;-43
2023/02/08 07:00:58;;;;;;;66.15;24.42;;;;;;;-2.06;100.00;103728.25;5009290;28;20305;-44
2023/02/08 07:03:24;;;;;;;68.43;24.38;;;;;;;-2.03;100.00;103732.59;5021151;28;20125;-43
2023/02/08 07:05:49;;;;;;;73.78;24.95;;;;;;;-2.01;100.00;103736.06;5024982;28;20145;-43
2023/02/08 07:08:15;;;;;;;59.97;23.52;;;;;;;-1.96;100.00;103738.63;5026385;28;20067;-42
2023/02/08 07:10:40;;;;;;;60.42;23.83;;;;;;;-1.96;100.00;103722.81;5026170;28;20030;-44
2023/02/08 07:13:06;;;;;;;60.90;24.05;;;;;;;-1.92;100.00;103735.03;5023303;28;20026;-44
2023/02/08 07:15:31;;;;;;;80.00;22.90;;;;;;;-1.90;100.00;103734.09;5023145;28;20037;-43
2023/02/08 07:17:57;;;;;;;61.63;24.55;;;;;;;-1.87;100.00;103731.41;5026377;28;20043;-45
2023/02/08 07:20:22;;;;;;;67.78;24.05;;;;;;;-1.86;100.00;103714.66;5027623;28;20499;-44
2023/02/08 07:22:47;;;;;;;61.30;24.67;;;;;;;-1.86;100.00;103709.38;5026593;28;20103;-42
2023/02/08 07:25:13;;;;;;;50.25;21.77;;;;;;;-1.88;100.00;103723.53;5024975;28;20029;-42
2023/02/08 07:27:38;;;;;;;78.60;30.45;;;;;;;-1.88;100.00;103731.44;5025076;28;20372;-43
2023/02/08 07:30:04;;;;;;;71.05;26.08;;;;;;;-1.85;100.00;103728.72;5024136;28;20274;-43
2023/02/08 07:32:29;;;;;;;58.10;21.42;;;;;;;-1.84;100.00;103720.78;5025337;28;20038;-43
2023/02/08 07:34:55;;;;;;;62.92;22.77;;;;;;;-1.80;100.00;103730.38;5027871;28;20160;-42
2023/02/08 07:37:20;;;;;;;66.93;22.73;;;;;;;-1.79;100.00;103720.69;5027293;28;20036;-41
2023/02/08 07:39:46;;;;;;;57.47;21.85;;;;;;;-1.78;100.00;103715.38;5025845;28;20040;-43
2023/02/08 07:42:11;;;;;;;61.78;21.73;;;;;;;-1.85;100.00;103712.88;5026530;28;20040;-41
2023/02/08 07:44:37;;;;;;;55.05;21.98;;;;;;;-1.80;100.00;103713.66;5027308;28;20049;-43
2023/02/08 07:47:03;;;;;;;59.72;22.52;;;;;;;-1.67;100.00;103709.88;5025143;28;20017;-43
2023/02/08 07:49:29;;;;;;;60.00;21.65;;;;;;;-1.57;100.00;103716.72;5025306;28;20033;-43
2023/02/08 07:51:54;;;;;;;56.70;21.98;;;;;;;-1.49;100.00;103723.59;5024722;28;20029;-42
2023/02/08 07:54:20;;;;;;;53.53;21.85;;;;;;;-1.40;100.00;103724.25;5023401;28;20022;-43
2023/02/08 07:56:45;;;;;;;58.58;23.92;;;;;;;-1.40;100.00;103712.81;5025783;28;20030;-41
2023/02/08 07:59:11;;;;;;;48.80;21.40;;;;;;;-1.20;100.00;103715.03;5025946;28;20034;-43
2023/02/08 08:01:36;;;;;;;51.42;22.10;;;;;;;-1.20;100.00;103713.25;5026105;28;20520;-43
2023/02/08 08:04:01;;;;;;;51.72;21.23;;;;;;;-1.16;100.00;103711.41;5023675;28;20129;-42
2023/02/08 08:06:27;;;;;;;52.72;21.50;;;;;;;-0.98;100.00;103704.81;5023982;28;20037;-43
2023/02/08 08:08:52;;;;;;;54.47;19.85;;;;;;;-0.74;100.00;103706.00;5023640;28;20041;-42
2023/02/08 08:11:18;;;;;;;48.55;20.90;;;;;;;-0.45;100.00;103700.84;5024676;28;20029;-43
2023/02/08 08:13:44;;;;;;;50.60;20.65;;;;;;;0.36;100.00;103694.19;5024210;28;20034;-42
2023/02/08 08:16:09;;;;;;;58.25;20.67;;;;;;;1.27;100.00;103694.88;5022743;28;20075;-42
2023/02/08 08:18:34;;;;;;;46.78;19.63;;;;;;;2.04;100.00;103692.19;5007762;28;20120;-44
2023/02/08 08:21:00;;;;;;;42.25;19.77;;;;;;;2.82;100.00;103695.38;5025035;28;20389;-41
2023/02/08 08:23:27;;;;;;;43.95;18.83;;;;;;;3.54;100.00;103686.19;5023953;28;20071;-42
2023/02/08 08:25:53;;;;;;;42.27;18.30;;;;;;;3.91;100.00;103684.56;5024217;28;20025;-42
2023/02/08 08:28:18;;;;;;;43.70;18.73;;;;;;;4.65;100.00;103682.03;5022415;28;20307;-42
2023/02/08 08:30:44;;;;;;;44.33;18.83;;;;;;;4.83;100.00;103685.63;5024417;28;20029;-43
2023/02/08 08:33:12;;;;;;;47.63;18.42;;;;;;;5.70;100.00;103689.22;5024064;28;20049;-43
2023/02/08 08:35:38;;;;;;;39.85;18.27;;;;;;;5.70;90.55;103680.34;5025550;28;20112;-43
2023/02/08 08:38:03;;;;;;;37.63;18.63;;;;;;;5.52;90.47;103674.13;5023781;28;20512;-43
2023/02/08 08:40:28;;;;;;;36.08;18.33;;;;;;;5.87;88.76;103680.31;5012063;28;20710;-44
2023/02/08 08:42:54;;;;;;;42.97;19.20;;;;;;;5.70;85.82;103691.88;5006976;28;20120;-43
2023/02/08 08:45:19;;;;;;;39.58;18.50;;;;;;;6.45;82.65;103686.13;5025099;28;20065;-42
2023/02/08 08:47:44;;;;;;;36.13;17.90;;;;;;;7.04;81.66;103681.91;5011411;28;20061;-43
2023/02/08 08:50:10;;;;;;;41.35;19.00;;;;;;;6.87;77.81;103676.63;5011038;28;20489;-44
2023/02/08 08:52:35;;;;;;;36.35;18.55;;;;;;;7.49;76.24;103669.41;5021779;28;20025;-42
2023/02/08 08:55:00;;;;;;;37.45;18.45;;;;;;;8.03;72.74;103669.69;5026796;28;20033;-42
2023/02/08 08:57:26;;;;;;;42.83;19.38;;;;;;;7.66;69.59;103671.94;5025472;28;20712;-43
2023/02/08 08:59:51;;;;;;;42.88;20.08;;;;;;;7.94;69.19;103669.38;5026142;28;20405;-43
2023/02/08 09:02:16;;;;;;;42.38;19.88;;;;;;;7.59;68.55;103670.59;5024020;28;20100;-44
2023/02/08 09:04:42;;;;;;;49.33;20.20;;;;;;;7.66;69.29;103677.31;5025211;28;20036;-43
2023/02/08 09:07:08;;;;;;;44.88;20.48;;;;;;;7.66;67.46;103677.31;5027809;28;20065;-42
2023/02/08 09:09:35;;;;;;;46.70;19.95;;;;;;;6.83;68.83;103665.25;5026563;28;20036;-43
2023/02/08 09:12:01;;;;;;;50.53;22.58;;;;;;;6.57;70.40;103664.91;5022923;28;20025;-43
2023/02/08 09:14:26;;;;;;;52.28;21.75;;;;;;;5.98;72.67;103678.91;5026805;28;20060;-43
2023/02/08 09:16:52;;;;;;;52.35;22.02;;;;;;;6.57;74.96;103675.63;5021737;28;20132;-44
2023/02/08 09:19:18;;;;;;;49.97;22.27;;;;;;;6.94;74.90;103688.72;5024560;28;20037;-42
2023/02/08 09:21:43;;;;;;;48.65;22.55;;;;;;;7.25;72.50;103688.66;5025515;28;20026;-44
2023/02/08 09:24:09;;;;;;;48.20;22.42;;;;;;;7.52;68.34;103677.25;5024294;28;20438;-43
2023/02/08 09:26:34;;;;;;;54.58;24.75;;;;;;;7.43;69.44;103677.84;5023524;28;20021;-45
2023/02/08 09:29:00;;;;;;;58.47;23.60;;;;;;;7.24;68.27;103680.72;5023950;28;20037;-43
2023/02/08 09:31:30;;;;;;;52.70;22.42;;;;;;;6.59;72.18;103673.72;5025384;28;20378;-43
2023/02/08 09:33:58;;;;;;;60.35;25.35;;;;;;;6.09;72.43;103673.84;5023633;28;20046;-42
2023/02/08 09:36:24;;;;;;;;;;;;;;;5.68;75.21;103679.53;5024377;28;20021;-43
2023/02/08 09:38:56;;;;;;;54.38;23.92;;;;;;;5.94;75.18;103676.38;5024879;28;19928;-43
2023/02/08 09:41:41;;;;;;;57.65;24.48;;;;;;;5.44;76.79;103676.34;5025931;28;20044;-45
2023/02/08 09:44:15;;;;;;;70.38;26.75;;;;;;;5.01;79.29;103682.03;5024527;28;20109;-42
2023/02/08 09:46:46;;;;;;;74.93;26.33;;;;;;;5.14;82.30;103670.78;5024515;28;20056;-44
2023/02/08 09:49:23;;;;;;;77.80;27.20;;;;;;;5.62;82.99;103677.22;5023629;28;20108;-42
2023/02/08 09:51:57;;;;;;;72.07;27.50;;;;;;;4.90;83.49;103676.38;5024263;28;20484;-42
2023/02/08 09:54:29;;;;;;;76.78;28.45;;;;;;;4.76;86.40;103678.84;5023323;28;20029;-43
2023/02/08 09:56:55;;;;;;;69.38;27.15;;;;;;;4.82;85.41;103682.09;5023988;28;20133;-44
2023/02/08 09:59:25;;;;;;;76.70;28.63;;;;;;;5.02;86.33;103670.41;5023164;28;20029;-43
2023/02/08 10:01:57;;;;;;;82.25;27.98;;;;;;;4.97;85.22;103683.13;5022424;28;20643;-43
2023/02/08 10:04:31;;;;;;;79.75;29.38;;;;;;;4.57;86.95;103676.19;5021482;28;20152;-42
2023/02/08 10:06:56;;;;;;;79.05;28.70;;;;;;;4.14;90.54;103675.53;5021231;28;20033;-43
2023/02/08 10:09:25;;;;;;;73.65;29.15;;;;;;;4.69;92.08;103678.28;5025175;28;20504;-43
2023/02/08 10:12:16;;;;;;;75.57;31.33;;;;;;;5.21;88.39;103680.16;5021529;28;20440;-43
2023/02/08 10:14:53;;;;;;;74.72;29.27;;;;;;;5.15;85.54;103681.34;5025053;28;20471;-42
2023/02/08 10:17:40;;;;;;;71.47;30.75;;;;;;;5.84;85.60;103691.16;5023446;28;20037;-43
2023/02/08 10:20:43;;;;;;;79.17;28.67;;;;;;;6.42;85.09;103691.66;5023278;28;20037;-42
2023/02/08 10:23:26;;;;;;;72.25;28.08;;;;;;;6.93;76.61;103703.09;5012896;28;20144;-43
2023/02/08 10:26:12;;;;;;;75.38;28.88;;;;;;;7.27;74.96;103691.28;5022257;28;20049;-43
2023/02/08 10:28:52;;;;;;;77.68;30.00;;;;;;;6.78;73.28;103694.97;5023217;28;20048;-42
2023/02/08 10:31:46;;;;;;;72.55;28.13;;;;;;;6.59;72.65;103694.28;5024911;28;20445;-43
2023/02/08 10:34:17;;;;;;;72.55;29.15;;;;;;;6.40;75.74;103696.22;5024437;28;20029;-44
2023/02/08 10:36:43;;;;;;;73.80;27.88;;;;;;;7.00;76.54;103699.09;5027753;28;20135;-42
2023/02/08 10:39:15;;;;;;;81.78;27.63;;;;;;;6.79;74.42;103691.34;5028943;28;20025;-42
2023/02/08 10:41:43;;;;;;;80.95;29.33;;;;;;;6.71;74.33;103693.56;5024706;28;20033;-44
2023/02/08 10:44:34;;;;;;;81.72;26.67;;;;;;;6.35;73.73;103694.69;5028447;28;20441;-44
2023/02/08 10:47:08;;;;;;;64.07;25.13;;;;;;;7.26;71.47;103693.06;5025451;28;20033;-43
2023/02/08 10:49:45;;;;;;;68.32;27.48;;;;;;;8.03;69.77;103675.03;5027421;28;20036;-43
2023/02/08 10:52:11;;;;;;;74.78;25.38;;;;;;;7.58;66.00;103671.56;5026442;28;20037;-42
2023/02/08 10:54:36;;;;;;;65.60;26.67;;;;;;;7.56;65.74;103670.78;5025400;28;20389;-43
2023/02/08 10:57:11;;;;;;;81.85;25.80;;;;;;;7.32;65.89;103669.53;5026836;28;20163;-42
2023/02/08 10:59:57;;;;;;;70.82;25.73;;;;;;;7.10;66.21;103668.13;5025603;28;20025;-46
2023/02/08 11:02:31;;;;;;;65.90;25.65;;;;;;;7.15;66.47;103666.06;5026528;28;20041;-44
2023/02/08 11:05:12;;;;;;;67.75;25.02;;;;;;;7.21;65.00;103660.34;5024643;28;20039;-43
2023/02/08 11:07:38;;;;;;;100.28;25.40;;;;;;;7.76;63.66;103655.28;5025115;28;20037;-44
2023/02/08 11:10:18;;;;;;;58.72;24.80;;;;;;;8.50;63.80;103659.56;5022622;28;20029;-43
2023/02/08 11:12:59;;;;;;;56.17;23.63;;;;;;;8.41;59.91;103657.50;5024424;28;20065;-44
2023/02/08 11:15:39;;;;;;;67.43;24.25;;;;;;;7.93;60.62;103657.78;5027580;28;20029;-42